Terminal Aerodrome Forecast
Issued by NWS Mt. Holly, NJ

Home | Current Version | Previous Version | Text Only | Print | Product List | Glossary On
Versions: 1 2 3 4 5 6 7 8 9 10 11 12 13 14 15 16 17 18 19 20 21 22 23 24 25 26 27 28 29 30 31 32 33 34 35 36 37 38 39 40 41 42 43 44 45 46
689
FTUS41 KPHI 242338
TAFABE
TAF
KABE 242338Z 2500/2524 13010G19KT P6SM -RA SCT045 OVC060
     FM250100 11008KT P6SM OVC050
      TEMPO 2501/2504 4SM RA
     FM250400 10009KT 4SM RA OVC015
     FM250700 10009KT 4SM RA OVC008
     FM251600 08008KT 6SM -RA BKN007=

USA.gov is the U.S. government's official web portal to all federal, state and local government web resources and services.